sensor_id;sensor_type;location;lat;lon;timestamp;P1;durP1;ratioP1;P2;durP2;ratioP2
56413;SDS011;42318;48.452;19.526;2023-04-25T00:07:13;4.70;;;2.58;;
56413;SDS011;42318;48.452;19.526;2023-04-25T00:14:44;2.95;;;2.33;;
56413;SDS011;42318;48.452;19.526;2023-04-25T00:22:16;2.72;;;2.28;;
56413;SDS011;42318;48.452;19.526;2023-04-25T00:29:47;2.37;;;1.90;;
56413;SDS011;42318;48.452;19.526;2023-04-25T00:37:18;2.78;;;1.95;;
56413;SDS011;42318;48.452;19.526;2023-04-25T00:44:50;2.57;;;2.00;;
56413;SDS011;42318;48.452;19.526;2023-04-25T00:52:22;2.38;;;2.00;;
56413;SDS011;42318;48.452;19.526;2023-04-25T00:59:53;3.10;;;1.90;;
56413;SDS011;42318;48.452;19.526;2023-04-25T01:07:25;4.85;;;1.85;;
56413;SDS011;42318;48.452;19.526;2023-04-25T01:14:56;2.83;;;2.17;;
56413;SDS011;42318;48.452;19.526;2023-04-25T01:22:27;3.38;;;2.13;;
56413;SDS011;42318;48.452;19.526;2023-04-25T01:29:58;2.45;;;1.75;;
56413;SDS011;42318;48.452;19.526;2023-04-25T01:37:30;2.60;;;2.00;;
56413;SDS011;42318;48.452;19.526;2023-04-25T01:45:01;2.17;;;1.80;;
56413;SDS011;42318;48.452;19.526;2023-04-25T01:52:32;3.05;;;2.00;;
56413;SDS011;42318;48.452;19.526;2023-04-25T02:00:04;2.47;;;1.98;;
56413;SDS011;42318;48.452;19.526;2023-04-25T02:07:37;2.10;;;1.80;;
56413;SDS011;42318;48.452;19.526;2023-04-25T02:15:08;2.72;;;2.10;;
56413;SDS011;42318;48.452;19.526;2023-04-25T02:22:39;1.98;;;1.73;;
56413;SDS011;42318;48.452;19.526;2023-04-25T02:30:10;2.80;;;2.10;;
56413;SDS011;42318;48.452;19.526;2023-04-25T02:37:41;2.33;;;1.90;;
56413;SDS011;42318;48.452;19.526;2023-04-25T02:45:12;2.40;;;1.77;;
56413;SDS011;42318;48.452;19.526;2023-04-25T02:52:43;1.90;;;1.67;;
56413;SDS011;42318;48.452;19.526;2023-04-25T03:00:14;3.72;;;1.83;;
56413;SDS011;42318;48.452;19.526;2023-04-25T03:07:45;1.90;;;1.65;;
56413;SDS011;42318;48.452;19.526;2023-04-25T03:15:16;1.90;;;1.40;;
56413;SDS011;42318;48.452;19.526;2023-04-25T03:22:47;1.75;;;1.50;;
56413;SDS011;42318;48.452;19.526;2023-04-25T03:30:17;2.40;;;1.45;;
56413;SDS011;42318;48.452;19.526;2023-04-25T03:37:48;2.08;;;1.77;;
56413;SDS011;42318;48.452;19.526;2023-04-25T03:45:19;2.53;;;1.80;;
56413;SDS011;42318;48.452;19.526;2023-04-25T03:52:50;2.25;;;1.50;;
56413;SDS011;42318;48.452;19.526;2023-04-25T04:00:21;1.83;;;1.40;;
56413;SDS011;42318;48.452;19.526;2023-04-25T04:07:52;1.80;;;1.58;;
56413;SDS011;42318;48.452;19.526;2023-04-25T04:15:23;2.40;;;1.73;;
56413;SDS011;42318;48.452;19.526;2023-04-25T04:22:53;2.17;;;1.30;;
56413;SDS011;42318;48.452;19.526;2023-04-25T04:30:24;1.90;;;1.50;;
56413;SDS011;42318;48.452;19.526;2023-04-25T04:37:55;2.08;;;1.67;;
56413;SDS011;42318;48.452;19.526;2023-04-25T04:45:26;1.85;;;1.30;;
56413;SDS011;42318;48.452;19.526;2023-04-25T04:52:58;2.17;;;1.50;;
56413;SDS011;42318;48.452;19.526;2023-04-25T05:00:28;1.35;;;1.17;;
56413;SDS011;42318;48.452;19.526;2023-04-25T05:07:59;2.05;;;1.20;;
56413;SDS011;42318;48.452;19.526;2023-04-25T05:15:30;1.30;;;1.20;;
56413;SDS011;42318;48.452;19.526;2023-04-25T05:23:01;1.85;;;1.30;;
56413;SDS011;42318;48.452;19.526;2023-04-25T05:30:32;1.80;;;1.40;;
56413;SDS011;42318;48.452;19.526;2023-04-25T05:38:04;1.60;;;1.42;;
56413;SDS011;42318;48.452;19.526;2023-04-25T05:45:35;1.48;;;1.13;;
56413;SDS011;42318;48.452;19.526;2023-04-25T05:53:06;1.60;;;1.40;;
56413;SDS011;42318;48.452;19.526;2023-04-25T06:00:37;1.52;;;1.15;;
56413;SDS011;42318;48.452;19.526;2023-04-25T06:08:08;1.73;;;1.30;;
56413;SDS011;42318;48.452;19.526;2023-04-25T06:15:40;1.40;;;1.10;;
56413;SDS011;42318;48.452;19.526;2023-04-25T06:23:11;1.52;;;1.17;;
56413;SDS011;42318;48.452;19.526;2023-04-25T06:30:42;1.75;;;1.15;;
56413;SDS011;42318;48.452;19.526;2023-04-25T06:38:13;2.20;;;1.35;;
56413;SDS011;42318;48.452;19.526;2023-04-25T06:45:44;2.00;;;1.10;;
56413;SDS011;42318;48.452;19.526;2023-04-25T06:53:15;1.67;;;1.17;;
56413;SDS011;42318;48.452;19.526;2023-04-25T07:00:46;1.50;;;1.20;;
56413;SDS011;42318;48.452;19.526;2023-04-25T07:08:17;1.70;;;1.20;;
56413;SDS011;42318;48.452;19.526;2023-04-25T07:15:48;1.90;;;1.15;;
56413;SDS011;42318;48.452;19.526;2023-04-25T07:23:19;4.65;;;1.33;;
56413;SDS011;42318;48.452;19.526;2023-04-25T07:30:49;1.88;;;1.23;;
56413;SDS011;42318;48.452;19.526;2023-04-25T07:38:20;1.23;;;1.00;;
56413;SDS011;42318;48.452;19.526;2023-04-25T07:45:51;3.30;;;1.20;;
56413;SDS011;42318;48.452;19.526;2023-04-25T07:53:22;2.28;;;1.30;;
56413;SDS011;42318;48.452;19.526;2023-04-25T08:00:53;1.92;;;1.30;;
56413;SDS011;42318;48.452;19.526;2023-04-25T08:08:24;2.75;;;1.15;;
56413;SDS011;42318;48.452;19.526;2023-04-25T08:15:55;1.48;;;1.10;;
56413;SDS011;42318;48.452;19.526;2023-04-25T08:23:26;3.00;;;1.25;;
56413;SDS011;42318;48.452;19.526;2023-04-25T08:30:57;3.65;;;1.35;;
56413;SDS011;42318;48.452;19.526;2023-04-25T08:38:27;2.25;;;1.30;;
56413;SDS011;42318;48.452;19.526;2023-04-25T08:45:59;2.05;;;1.27;;
56413;SDS011;42318;48.452;19.526;2023-04-25T08:53:31;2.83;;;1.10;;
56413;SDS011;42318;48.452;19.526;2023-04-25T09:01:03;1.80;;;1.27;;
56413;SDS011;42318;48.452;19.526;2023-04-25T09:08:35;2.05;;;1.02;;
56413;SDS011;42318;48.452;19.526;2023-04-25T09:16:07;1.65;;;1.10;;
56413;SDS011;42318;48.452;19.526;2023-04-25T09:31:22;3.17;;;1.30;;
56413;SDS011;42318;48.452;19.526;2023-04-25T09:38:57;1.80;;;1.08;;
56413;SDS011;42318;48.452;19.526;2023-04-25T09:46:34;1.65;;;1.20;;
56413;SDS011;42318;48.452;19.526;2023-04-25T09:54:06;3.05;;;1.10;;
56413;SDS011;42318;48.452;19.526;2023-04-25T10:01:37;1.77;;;1.10;;
56413;SDS011;42318;48.452;19.526;2023-04-25T10:09:11;1.88;;;1.13;;
56413;SDS011;42318;48.452;19.526;2023-04-25T10:16:44;1.95;;;1.20;;
56413;SDS011;42318;48.452;19.526;2023-04-25T10:24:16;1.40;;;1.13;;
56413;SDS011;42318;48.452;19.526;2023-04-25T10:31:47;1.35;;;0.90;;
56413;SDS011;42318;48.452;19.526;2023-04-25T10:39:24;1.35;;;0.90;;
56413;SDS011;42318;48.452;19.526;2023-04-25T10:46:58;2.95;;;1.30;;
56413;SDS011;42318;48.452;19.526;2023-04-25T10:54:30;1.77;;;1.17;;
56413;SDS011;42318;48.452;19.526;2023-04-25T11:02:01;2.28;;;1.45;;
56413;SDS011;42318;48.452;19.526;2023-04-25T11:09:43;1.15;;;0.88;;
56413;SDS011;42318;48.452;19.526;2023-04-25T11:17:15;1.70;;;1.00;;
56413;SDS011;42318;48.452;19.526;2023-04-25T11:24:46;1.55;;;1.10;;
56413;SDS011;42318;48.452;19.526;2023-04-25T11:32:17;1.35;;;1.10;;
56413;SDS011;42318;48.452;19.526;2023-04-25T11:39:48;1.27;;;1.00;;
56413;SDS011;42318;48.452;19.526;2023-04-25T11:47:19;1.73;;;1.23;;
56413;SDS011;42318;48.452;19.526;2023-04-25T11:54:50;1.52;;;1.00;;
56413;SDS011;42318;48.452;19.526;2023-04-25T12:02:24;1.10;;;0.80;;
56413;SDS011;42318;48.452;19.526;2023-04-25T12:09:56;1.83;;;1.10;;
56413;SDS011;42318;48.452;19.526;2023-04-25T12:17:28;2.45;;;1.20;;
56413;SDS011;42318;48.452;19.526;2023-04-25T12:24:59;2.33;;;1.52;;
56413;SDS011;42318;48.452;19.526;2023-04-25T12:32:29;2.30;;;1.20;;
56413;SDS011;42318;48.452;19.526;2023-04-25T12:40:00;1.60;;;1.25;;
56413;SDS011;42318;48.452;19.526;2023-04-25T12:47:31;1.63;;;0.90;;
56413;SDS011;42318;48.452;19.526;2023-04-25T12:55:05;1.33;;;0.95;;
56413;SDS011;42318;48.452;19.526;2023-04-25T13:02:36;3.65;;;1.33;;
56413;SDS011;42318;48.452;19.526;2023-04-25T13:10:08;1.25;;;0.80;;
56413;SDS011;42318;48.452;19.526;2023-04-25T13:17:38;2.42;;;1.20;;
56413;SDS011;42318;48.452;19.526;2023-04-25T13:25:09;1.90;;;1.17;;
56413;SDS011;42318;48.452;19.526;2023-04-25T13:32:40;1.85;;;1.08;;
56413;SDS011;42318;48.452;19.526;2023-04-25T13:40:11;2.65;;;1.00;;
56413;SDS011;42318;48.452;19.526;2023-04-25T13:47:42;1.40;;;0.88;;
56413;SDS011;42318;48.452;19.526;2023-04-25T13:55:13;2.22;;;1.15;;
56413;SDS011;42318;48.452;19.526;2023-04-25T14:02:44;1.70;;;1.08;;
56413;SDS011;42318;48.452;19.526;2023-04-25T14:10:15;1.58;;;1.38;;
56413;SDS011;42318;48.452;19.526;2023-04-25T14:17:46;1.40;;;1.17;;
56413;SDS011;42318;48.452;19.526;2023-04-25T14:32:49;2.38;;;1.05;;
56413;SDS011;42318;48.452;19.526;2023-04-25T14:40:20;2.22;;;1.00;;
56413;SDS011;42318;48.452;19.526;2023-04-25T14:47:53;2.13;;;1.25;;
56413;SDS011;42318;48.452;19.526;2023-04-25T14:55:24;3.30;;;1.20;;
56413;SDS011;42318;48.452;19.526;2023-04-25T15:02:55;3.00;;;1.20;;
56413;SDS011;42318;48.452;19.526;2023-04-25T15:10:26;1.67;;;1.10;;
56413;SDS011;42318;48.452;19.526;2023-04-25T15:17:57;1.85;;;1.00;;
56413;SDS011;42318;48.452;19.526;2023-04-25T15:25:28;2.35;;;0.90;;
56413;SDS011;42318;48.452;19.526;2023-04-25T15:32:58;3.50;;;1.17;;
56413;SDS011;42318;48.452;19.526;2023-04-25T15:40:29;2.33;;;1.15;;
56413;SDS011;42318;48.452;19.526;2023-04-25T15:48:00;4.07;;;1.23;;
56413;SDS011;42318;48.452;19.526;2023-04-25T15:55:31;2.13;;;1.10;;
56413;SDS011;42318;48.452;19.526;2023-04-25T16:03:03;2.10;;;1.30;;
56413;SDS011;42318;48.452;19.526;2023-04-25T16:10:34;1.60;;;0.98;;
56413;SDS011;42318;48.452;19.526;2023-04-25T16:18:06;2.58;;;1.27;;
56413;SDS011;42318;48.452;19.526;2023-04-25T16:25:37;2.03;;;1.20;;
56413;SDS011;42318;48.452;19.526;2023-04-25T16:33:08;2.47;;;1.35;;
56413;SDS011;42318;48.452;19.526;2023-04-25T16:40:39;2.67;;;1.10;;
56413;SDS011;42318;48.452;19.526;2023-04-25T16:48:10;2.22;;;1.10;;
56413;SDS011;42318;48.452;19.526;2023-04-25T16:55:41;2.67;;;0.90;;
56413;SDS011;42318;48.452;19.526;2023-04-25T17:03:12;1.60;;;1.20;;
56413;SDS011;42318;48.452;19.526;2023-04-25T17:10:43;0.87;;;0.83;;
56413;SDS011;42318;48.452;19.526;2023-04-25T17:18:14;2.50;;;1.05;;
56413;SDS011;42318;48.452;19.526;2023-04-25T17:25:47;2.10;;;1.20;;
56413;SDS011;42318;48.452;19.526;2023-04-25T17:33:18;1.42;;;1.00;;
56413;SDS011;42318;48.452;19.526;2023-04-25T17:40:48;2.05;;;1.08;;
56413;SDS011;42318;48.452;19.526;2023-04-25T17:48:19;1.50;;;0.85;;
56413;SDS011;42318;48.452;19.526;2023-04-25T17:55:52;1.65;;;1.05;;
56413;SDS011;42318;48.452;19.526;2023-04-25T18:03:23;1.45;;;1.02;;
56413;SDS011;42318;48.452;19.526;2023-04-25T18:10:54;1.52;;;0.80;;
56413;SDS011;42318;48.452;19.526;2023-04-25T18:18:26;2.30;;;1.00;;
56413;SDS011;42318;48.452;19.526;2023-04-25T18:26:02;1.42;;;0.95;;
56413;SDS011;42318;48.452;19.526;2023-04-25T18:33:34;1.43;;;1.07;;
56413;SDS011;42318;48.452;19.526;2023-04-25T18:41:05;2.45;;;0.82;;
56413;SDS011;42318;48.452;19.526;2023-04-25T18:48:36;1.10;;;0.77;;
56413;SDS011;42318;48.452;19.526;2023-04-25T18:56:07;1.88;;;1.08;;
56413;SDS011;42318;48.452;19.526;2023-04-25T19:03:38;2.25;;;1.10;;
56413;SDS011;42318;48.452;19.526;2023-04-25T19:11:10;1.35;;;0.80;;
56413;SDS011;42318;48.452;19.526;2023-04-25T19:18:41;1.13;;;0.93;;
56413;SDS011;42318;48.452;19.526;2023-04-25T19:26:12;1.33;;;0.80;;
56413;SDS011;42318;48.452;19.526;2023-04-25T19:33:42;1.67;;;0.90;;
56413;SDS011;42318;48.452;19.526;2023-04-25T19:41:13;1.63;;;1.00;;
56413;SDS011;42318;48.452;19.526;2023-04-25T19:48:44;1.42;;;0.90;;
56413;SDS011;42318;48.452;19.526;2023-04-25T19:56:16;1.17;;;0.85;;
56413;SDS011;42318;48.452;19.526;2023-04-25T20:03:47;1.30;;;0.80;;
56413;SDS011;42318;48.452;19.526;2023-04-25T20:11:20;1.73;;;0.90;;
56413;SDS011;42318;48.452;19.526;2023-04-25T20:18:51;1.58;;;1.02;;
56413;SDS011;42318;48.452;19.526;2023-04-25T20:26:22;1.42;;;0.90;;
56413;SDS011;42318;48.452;19.526;2023-04-25T20:33:55;1.38;;;0.98;;
56413;SDS011;42318;48.452;19.526;2023-04-25T20:41:26;1.25;;;0.85;;
56413;SDS011;42318;48.452;19.526;2023-04-25T20:48:56;1.85;;;0.95;;
56413;SDS011;42318;48.452;19.526;2023-04-25T20:56:27;1.88;;;0.80;;
56413;SDS011;42318;48.452;19.526;2023-04-25T21:03:59;1.73;;;1.00;;
56413;SDS011;42318;48.452;19.526;2023-04-25T21:11:30;1.50;;;1.20;;
56413;SDS011;42318;48.452;19.526;2023-04-25T21:19:01;1.50;;;1.10;;
56413;SDS011;42318;48.452;19.526;2023-04-25T21:26:31;1.77;;;1.00;;
56413;SDS011;42318;48.452;19.526;2023-04-25T21:34:02;1.23;;;0.93;;
56413;SDS011;42318;48.452;19.526;2023-04-25T21:41:33;1.48;;;0.90;;
56413;SDS011;42318;48.452;19.526;2023-04-25T21:49:04;1.30;;;0.90;;
56413;SDS011;42318;48.452;19.526;2023-04-25T21:56:34;2.10;;;0.82;;
56413;SDS011;42318;48.452;19.526;2023-04-25T22:04:06;1.58;;;0.82;;
56413;SDS011;42318;48.452;19.526;2023-04-25T22:11:36;1.70;;;0.95;;
56413;SDS011;42318;48.452;19.526;2023-04-25T22:19:07;1.02;;;0.88;;
56413;SDS011;42318;48.452;19.526;2023-04-25T22:26:38;1.85;;;1.10;;
56413;SDS011;42318;48.452;19.526;2023-04-25T22:34:09;1.27;;;0.90;;
56413;SDS011;42318;48.452;19.526;2023-04-25T22:41:40;1.73;;;1.00;;
56413;SDS011;42318;48.452;19.526;2023-04-25T22:49:11;1.50;;;0.90;;
56413;SDS011;42318;48.452;19.526;2023-04-25T22:56:42;1.88;;;0.95;;
56413;SDS011;42318;48.452;19.526;2023-04-25T23:04:13;1.52;;;0.98;;
56413;SDS011;42318;48.452;19.526;2023-04-25T23:11:45;1.50;;;1.08;;
56413;SDS011;42318;48.452;19.526;2023-04-25T23:19:16;1.08;;;0.85;;
56413;SDS011;42318;48.452;19.526;2023-04-25T23:26:47;1.27;;;1.00;;
56413;SDS011;42318;48.452;19.526;2023-04-25T23:34:18;1.88;;;1.30;;
56413;SDS011;42318;48.452;19.526;2023-04-25T23:41:49;2.15;;;1.17;;
